You are listening to:
EHAM App/Dep TMA East - Amsterdam, Netherlands

EHAM 220455Z 01009KT 330V040 9999 SCT044 13/09 Q1016 NOSIG

If stream doesn't start automatically press the play button
If stream stops then reload player then press play